Time;durP1;ratioP1;P1;durP2;ratioP2;P2;SDS_P1;SDS_P2;PMS_P1;PMS_P2;Temp;Humidity;BMP_temperature;BMP_pressure;BME280_temperature;BME280_humidity;BME280_pressure;Samples;Min_cycle;Max_cycle;Signal;HPM_P1;HPM_P2
2022/05/06 00:00:41;;;;;;;9.13;6.70;;;12.20;99.90;;;;;;2472600;23;19999;-76
2022/05/06 00:01:44;;;;;;;9.32;6.40;;;12.20;99.90;;;;;;2484455;23;20000;-76
2022/05/06 00:02:44;;;;;;;10.10;6.47;;;12.20;99.90;;;;;;2496720;23;20003;-76
2022/05/06 00:03:45;;;;;;;10.57;6.55;;;12.20;99.90;;;;;;2484393;23;19999;-75
2022/05/06 00:04:45;;;;;;;10.40;6.38;;;12.30;99.90;;;;;;2483768;23;20496;-76
2022/05/06 00:05:46;;;;;;;8.73;6.10;;;12.30;99.90;;;;;;2495681;23;20062;-75
2022/05/06 00:06:46;;;;;;;7.68;6.07;;;12.30;99.90;;;;;;2484210;23;20011;-76
2022/05/06 00:07:47;;;;;;;8.90;5.97;;;12.30;99.90;;;;;;2483640;23;20107;-75
2022/05/06 00:08:48;;;;;;;7.10;5.63;;;12.30;99.90;;;;;;2496458;23;20031;-77
2022/05/06 00:09:49;;;;;;;7.28;5.70;;;12.30;99.90;;;;;;2495913;23;20058;-75
2022/05/06 00:10:50;;;;;;;7.07;5.80;;;12.30;99.90;;;;;;2495462;23;20015;-74
2022/05/06 00:11:53;;;;;;;10.95;6.38;;;12.40;99.90;;;;;;2485001;23;20015;-76
2022/05/06 00:12:55;;;;;;;7.63;5.63;;;12.40;99.90;;;;;;2495495;23;20007;-75
2022/05/06 00:13:55;;;;;;;8.57;5.97;;;12.40;99.90;;;;;;2496036;23;19999;-73
2022/05/06 00:14:56;;;;;;;8.60;5.72;;;12.40;99.90;;;;;;2486065;23;20023;-74
2022/05/06 00:15:57;;;;;;;8.27;5.80;;;12.50;99.90;;;;;;2486631;23;20015;-75
2022/05/06 00:16:57;;;;;;;6.20;5.60;;;12.50;99.90;;;;;;2485773;23;20014;-74
2022/05/06 00:17:58;;;;;;;7.05;5.53;;;12.50;99.90;;;;;;2485896;23;20019;-77
2022/05/06 00:18:59;;;;;;;8.25;5.45;;;12.50;99.90;;;;;;2498555;23;20015;-75
2022/05/06 00:19:59;;;;;;;7.97;5.65;;;12.50;99.90;;;;;;2489442;23;20007;-73
2022/05/06 00:21:00;;;;;;;6.50;5.50;;;12.60;99.90;;;;;;2488789;23;20008;-74
2022/05/06 00:22:03;;;;;;;7.38;5.40;;;12.50;99.90;;;;;;2485526;23;20206;-74
2022/05/06 00:23:04;;;;;;;8.63;5.60;;;12.60;99.90;;;;;;2484824;23;20011;-75
2022/05/06 00:24:05;;;;;;;8.73;5.63;;;12.60;99.90;;;;;;2485019;23;20012;-75
2022/05/06 00:25:05;;;;;;;9.15;5.80;;;12.60;99.90;;;;;;2485361;23;20067;-75
2022/05/06 00:26:07;;;;;;;6.85;5.40;;;12.60;99.90;;;;;;2484644;23;20016;-76
2022/05/06 00:27:07;;;;;;;8.85;5.63;;;12.60;99.90;;;;;;2484257;23;20360;-76
2022/05/06 00:28:08;;;;;;;8.25;5.30;;;12.60;99.90;;;;;;2483818;23;20015;-75
2022/05/06 00:29:09;;;;;;;7.20;5.45;;;12.60;99.90;;;;;;2484487;23;20580;-77
2022/05/06 00:30:10;;;;;;;7.82;5.30;;;12.70;99.90;;;;;;2484354;23;20011;-76
2022/05/06 00:31:12;;;;;;;7.13;5.15;;;12.70;99.90;;;;;;2495617;23;20003;-76
2022/05/06 00:32:12;;;;;;;10.23;5.78;;;12.70;99.90;;;;;;2495348;23;20011;-76
2022/05/06 00:33:13;;;;;;;7.93;5.70;;;12.70;99.90;;;;;;2495394;23;20011;-76
2022/05/06 00:34:14;;;;;;;8.63;5.55;;;12.70;99.90;;;;;;2495349;23;20018;-75
2022/05/06 00:35:15;;;;;;;7.75;5.40;;;12.80;99.90;;;;;;2483645;23;20078;-76
2022/05/06 00:36:15;;;;;;;7.78;5.30;;;12.70;99.90;;;;;;2483433;23;20007;-77
2022/05/06 00:37:16;;;;;;;7.68;5.57;;;12.70;99.90;;;;;;2494965;23;20393;-77
2022/05/06 00:38:17;;;;;;;9.55;6.20;;;12.70;99.90;;;;;;2503521;23;20750;-77
2022/05/06 00:39:17;;;;;;;8.38;5.93;;;12.70;99.90;;;;;;2471718;24;20032;-76
2022/05/06 00:40:19;;;;;;;9.02;6.63;;;12.70;99.90;;;;;;2472277;23;20011;-76
2022/05/06 00:41:21;;;;;;;8.80;6.20;;;12.70;99.90;;;;;;2484479;23;20003;-77
2022/05/06 00:42:21;;;;;;;11.75;6.45;;;12.70;99.90;;;;;;2484661;23;20040;-76
2022/05/06 00:43:24;;;;;;;8.73;6.30;;;12.70;99.90;;;;;;2485470;23;20007;-75
2022/05/06 00:44:25;;;;;;;12.00;6.70;;;12.70;99.90;;;;;;2487484;23;20003;-76
2022/05/06 00:45:39;;;;;;;8.55;6.80;;;12.70;99.90;;;;;;2488769;23;20033;-72
2022/05/06 00:46:40;;;;;;;11.95;7.38;;;12.60;99.90;;;;;;2488613;23;20344;-77
2022/05/06 00:47:41;;;;;;;9.55;6.15;;;12.60;99.90;;;;;;2487902;23;20028;-74
2022/05/06 00:48:45;;;;;;;9.20;6.38;;;12.60;99.90;;;;;;2487273;23;20090;-75
2022/05/06 00:49:47;;;;;;;9.68;6.40;;;12.60;99.90;;;;;;2499055;23;20019;-75
2022/05/06 00:50:49;;;;;;;8.05;6.05;;;12.60;99.90;;;;;;2509593;23;20015;-74
2022/05/06 00:51:53;;;;;;;7.78;5.72;;;12.60;99.90;;;;;;2497793;23;20090;-75
2022/05/06 00:52:54;;;;;;;6.75;5.78;;;12.60;99.90;;;;;;2509756;23;20349;-74
2022/05/06 00:53:56;;;;;;;8.68;6.15;;;12.60;99.90;;;;;;2498765;23;20019;-75
2022/05/06 00:54:56;;;;;;;9.32;6.13;;;12.70;99.90;;;;;;2488080;23;20112;-75
2022/05/06 00:55:57;;;;;;;8.43;6.57;;;12.60;99.90;;;;;;2499255;23;20015;-75
2022/05/06 00:56:58;;;;;;;8.82;6.25;;;12.60;99.90;;;;;;2498388;23;20098;-75
2022/05/06 00:57:59;;;;;;;7.00;5.80;;;12.60;99.90;;;;;;2498099;23;20023;-75
2022/05/06 00:59:00;;;;;;;7.20;5.80;;;12.60;99.90;;;;;;2509768;23;20014;-76
2022/05/06 01:00:17;;;;;;;8.07;5.75;;;12.60;99.90;;;;;;2508932;23;20057;-77
2022/05/06 01:01:19;;;;;;;11.93;6.05;;;12.70;99.90;;;;;;2496342;23;20011;-74
2022/05/06 01:02:20;;;;;;;9.27;5.57;;;12.70;99.90;;;;;;2484680;23;20004;-74
2022/05/06 01:03:21;;;;;;;7.82;5.65;;;12.70;99.90;;;;;;2496496;23;20003;-75
2022/05/06 01:04:22;;;;;;;8.32;6.18;;;12.70;99.90;;;;;;2508426;23;20007;-76
2022/05/06 01:05:23;;;;;;;9.50;6.40;;;12.70;99.90;;;;;;2496432;23;20110;-75
2022/05/06 01:06:24;;;;;;;7.97;6.25;;;12.70;99.90;;;;;;2496227;23;20106;-75
2022/05/06 01:07:27;;;;;;;9.10;6.32;;;12.70;99.90;;;;;;2495704;23;20035;-74
2022/05/06 01:08:29;;;;;;;8.30;6.60;;;12.70;99.90;;;;;;2495001;23;20015;-74
2022/05/06 01:09:31;;;;;;;9.30;6.40;;;12.60;99.90;;;;;;2496190;23;20067;-74
2022/05/06 01:10:31;;;;;;;8.63;6.47;;;12.70;99.90;;;;;;2508212;23;20037;-76
2022/05/06 01:11:34;;;;;;;7.18;5.88;;;12.70;99.90;;;;;;2496453;23;20007;-76
2022/05/06 01:12:35;;;;;;;8.80;6.10;;;12.60;99.90;;;;;;2496262;23;20070;-77
2022/05/06 01:13:43;;;;;;;8.48;6.60;;;12.60;99.90;;;;;;2496600;23;20031;-72
2022/05/06 01:14:46;;;;;;;8.82;6.30;;;12.60;99.90;;;;;;2496703;23;20008;-72
2022/05/06 01:16:01;;;;;;;8.65;6.50;;;12.60;99.90;;;;;;2497039;23;20003;-75
2022/05/06 01:17:05;;;;;;;9.68;6.40;;;12.60;99.90;;;;;;2485507;23;20086;-76
2022/05/06 01:18:11;;;;;;;8.95;6.43;;;12.60;99.90;;;;;;2498166;23;20011;-75
2022/05/06 01:19:11;;;;;;;9.65;6.40;;;12.60;99.90;;;;;;2508886;23;20105;-76
2022/05/06 01:20:15;;;;;;;8.10;5.90;;;12.60;99.90;;;;;;2496714;23;20648;-72
2022/05/06 01:21:23;;;;;;;7.38;5.70;;;12.60;99.90;;;;;;2485692;23;20008;-75
2022/05/06 01:22:23;;;;;;;7.75;5.32;;;12.60;99.90;;;;;;2496476;23;20425;-71
2022/05/06 01:23:24;;;;;;;8.35;5.85;;;12.60;99.90;;;;;;2495486;23;20034;-73
2022/05/06 01:24:25;;;;;;;7.65;5.45;;;12.60;98.90;;;;;;2495701;23;20050;-74
2022/05/06 01:25:26;;;;;;;7.10;5.85;;;12.60;98.10;;;;;;2496147;23;20024;-73
2022/05/06 01:26:53;;;;;;;7.60;5.30;;;12.60;97.80;;;;;;2507869;23;20022;-76
2022/05/06 01:27:57;;;;;;;7.05;5.18;;;12.60;97.50;;;;;;2498154;23;20015;-76
2022/05/06 01:28:58;;;;;;;10.00;5.50;;;12.60;97.20;;;;;;2507529;23;20077;-74
2022/05/06 01:30:01;;;;;;;9.57;5.82;;;12.60;96.50;;;;;;2506983;23;20021;-73
2022/05/06 01:31:02;;;;;;;7.45;5.40;;;12.50;95.70;;;;;;2507473;23;20147;-72
2022/05/06 01:32:03;;;;;;;8.60;6.13;;;12.50;96.10;;;;;;2507141;23;20021;-74
2022/05/06 01:33:06;;;;;;;7.97;5.72;;;12.50;95.90;;;;;;2495682;23;20015;-76
2022/05/06 01:34:09;;;;;;;7.30;5.38;;;12.50;96.10;;;;;;2495107;23;20496;-73
2022/05/06 01:35:12;;;;;;;7.70;5.35;;;12.50;96.30;;;;;;2494700;23;20011;-72
2022/05/06 01:36:13;;;;;;;7.70;5.03;;;12.50;96.30;;;;;;2484421;23;20012;-74
2022/05/06 01:37:16;;;;;;;8.07;5.38;;;12.50;96.10;;;;;;2483843;23;20012;-73
2022/05/06 01:38:30;;;;;;;6.82;5.20;;;12.40;95.80;;;;;;2491314;23;20011;-74
2022/05/06 01:39:34;;;;;;;8.68;5.30;;;12.50;96.20;;;;;;2495214;23;20015;-74
2022/05/06 01:40:41;;;;;;;8.38;5.45;;;12.40;96.10;;;;;;2495230;23;20090;-73
2022/05/06 01:41:45;;;;;;;8.75;5.60;;;12.40;96.30;;;;;;2495062;23;20055;-72
2022/05/06 01:42:52;;;;;;;8.32;5.40;;;12.40;96.50;;;;;;2495450;23;20083;-75
2022/05/06 01:44:01;;;;;;;7.60;5.68;;;12.40;96.60;;;;;;2495326;23;20038;-75
2022/05/06 01:45:03;;;;;;;8.15;5.70;;;12.30;97.20;;;;;;2495123;23;20011;-75
2022/05/06 01:46:06;;;;;;;10.50;6.20;;;12.30;98.80;;;;;;2495027;23;20018;-75
2022/05/06 01:47:24;;;;;;;7.35;5.90;;;12.30;99.30;;;;;;2494564;23;20042;-72
2022/05/06 01:48:28;;;;;;;8.70;6.13;;;12.20;99.90;;;;;;2495011;23;20476;-73
2022/05/06 01:49:30;;;;;;;7.45;6.10;;;12.20;99.90;;;;;;2495245;23;20018;-73
2022/05/06 01:50:38;;;;;;;12.07;6.55;;;12.20;99.90;;;;;;2494980;23;20007;-75
2022/05/06 01:51:42;;;;;;;8.82;6.72;;;12.20;99.90;;;;;;2495239;23;20023;-75
2022/05/06 01:52:49;;;;;;;9.32;6.38;;;12.10;99.90;;;;;;2495072;23;20014;-72
2022/05/06 01:53:51;;;;;;;7.85;6.15;;;12.10;99.90;;;;;;2495245;23;20011;-73
2022/05/06 01:54:54;;;;;;;9.02;6.60;;;12.00;99.90;;;;;;2494372;23;20114;-74
2022/05/06 01:55:55;;;;;;;9.77;6.32;;;12.00;99.90;;;;;;2483106;23;20019;-75
2022/05/06 01:57:01;;;;;;;8.73;6.38;;;12.00;99.90;;;;;;2483094;23;20007;-74
2022/05/06 01:58:04;;;;;;;7.60;6.20;;;11.90;99.90;;;;;;2494587;23;20474;-76
2022/05/06 01:59:07;;;;;;;7.57;6.05;;;11.90;99.90;;;;;;2495250;23;20019;-76
2022/05/06 02:00:08;;;;;;;7.45;6.00;;;11.90;99.90;;;;;;2495342;23;20010;-74
2022/05/06 02:01:16;;;;;;;8.32;6.30;;;11.90;99.90;;;;;;2484396;23;20103;-74
2022/05/06 02:02:21;;;;;;;11.45;6.18;;;11.80;99.90;;;;;;2494931;23;20018;-73
2022/05/06 02:06:08;;;;;;;8.70;6.20;;;11.70;99.90;;;;;;2483759;23;20036;-76
2022/05/06 02:07:12;;;;;;;9.18;6.82;;;11.70;99.90;;;;;;2483965;23;20031;-74
2022/05/06 02:08:15;;;;;;;8.90;6.32;;;11.70;99.90;;;;;;2495260;23;20618;-74
2022/05/06 02:09:17;;;;;;;8.88;6.30;;;11.70;99.90;;;;;;2495068;23;20018;-75
2022/05/06 02:10:27;;;;;;;8.75;6.25;;;11.60;99.90;;;;;;2493271;23;20571;-73
2022/05/06 02:11:34;;;;;;;11.10;6.70;;;11.60;99.90;;;;;;2483595;23;20016;-73
2022/05/06 02:12:35;;;;;;;9.45;6.75;;;11.60;99.90;;;;;;2484880;23;20000;-73
2022/05/06 02:13:40;;;;;;;7.97;6.40;;;11.60;99.90;;;;;;2495076;23;20472;-74
2022/05/06 02:15:04;;;;;;;7.82;6.40;;;11.60;99.90;;;;;;2487587;23;20040;-76
2022/05/06 02:16:25;;;;;;;11.15;6.63;;;11.60;99.90;;;;;;2483323;23;20015;-74
2022/05/06 02:17:53;;;;;;;8.88;6.57;;;11.50;99.90;;;;;;2488630;23;20007;-73
2022/05/06 02:19:06;;;;;;;9.98;7.07;;;11.50;99.90;;;;;;2492175;23;20018;-75
2022/05/06 02:20:27;;;;;;;11.20;7.28;;;11.50;99.90;;;;;;2479096;23;20007;-76
2022/05/06 02:21:28;;;;;;;9.73;7.68;;;11.50;99.90;;;;;;2495882;23;20018;-73
2022/05/06 02:22:46;;;;;;;9.98;7.10;;;11.50;99.90;;;;;;2495173;23;20004;-77
2022/05/06 02:24:06;;;;;;;9.15;7.10;;;11.50;99.90;;;;;;2492075;23;20011;-74
2022/05/06 02:25:12;;;;;;;9.10;7.05;;;11.50;99.90;;;;;;2484961;23;20071;-76
2022/05/06 02:26:19;;;;;;;9.32;7.07;;;11.50;99.90;;;;;;2484937;23;20352;-74
2022/05/06 02:27:26;;;;;;;8.93;6.90;;;11.40;99.90;;;;;;2496086;23;20015;-74
2022/05/06 02:28:29;;;;;;;10.50;7.38;;;11.40;99.90;;;;;;2496593;23;20007;-74
2022/05/06 02:33:12;;;;;;;9.65;7.50;;;11.40;99.90;;;;;;2496824;23;20014;-73
2022/05/06 02:33:46;;;;;;;10.13;7.10;;;11.30;99.90;;;;;;2496349;23;20015;-75
2022/05/06 02:34:56;;;;;;;12.75;7.70;;;11.20;99.90;;;;;;2495336;23;20085;-75
2022/05/06 02:35:59;;;;;;;9.68;7.43;;;11.20;99.90;;;;;;2494893;23;20043;-75
2022/05/06 02:37:03;;;;;;;8.75;6.90;;;11.10;99.90;;;;;;2494652;23;20035;-73
2022/05/06 02:38:17;;;;;;;10.10;7.50;;;11.10;99.90;;;;;;2495300;23;20011;-73
2022/05/06 02:39:17;;;;;;;9.63;7.32;;;11.10;99.90;;;;;;2495422;23;20019;-77
2022/05/06 02:40:18;;;;;;;9.75;7.65;;;11.10;99.90;;;;;;2496249;23;20012;-74
2022/05/06 02:41:19;;;;;;;9.63;7.80;;;11.10;99.90;;;;;;2484690;23;20036;-75
2022/05/06 02:42:28;;;;;;;11.23;7.65;;;11.00;99.90;;;;;;2486522;23;20040;-76
2022/05/06 02:43:29;;;;;;;10.88;7.85;;;11.00;99.90;;;;;;2484672;23;20109;-73
2022/05/06 02:44:30;;;;;;;11.02;7.85;;;10.90;99.90;;;;;;2484231;23;20000;-73
2022/05/06 02:45:34;;;;;;;9.43;7.43;;;10.90;99.90;;;;;;2496566;23;20019;-74
2022/05/06 02:46:35;;;;;;;9.88;7.45;;;10.90;99.90;;;;;;2487202;23;20008;-73
2022/05/06 02:47:36;;;;;;;10.95;7.85;;;10.90;99.90;;;;;;2475663;24;20014;-73
2022/05/06 02:48:37;;;;;;;9.65;7.60;;;10.80;99.90;;;;;;2486911;23;20094;-74
2022/05/06 02:49:40;;;;;;;11.13;7.72;;;10.80;99.90;;;;;;2500340;23;20017;-74
2022/05/06 02:50:47;;;;;;;12.68;7.90;;;10.80;99.90;;;;;;2498460;23;20011;-73
2022/05/06 02:51:49;;;;;;;12.82;7.70;;;10.70;99.90;;;;;;2497658;23;20007;-72
2022/05/06 02:52:50;;;;;;;12.98;7.72;;;10.70;99.90;;;;;;2497038;23;20038;-74
2022/05/06 02:53:52;;;;;;;16.30;8.40;;;10.70;99.90;;;;;;2485403;23;20015;-76
2022/05/06 02:54:57;;;;;;;13.90;8.00;;;10.70;99.90;;;;;;2475059;23;20381;-75
2022/05/06 02:55:58;;;;;;;11.93;7.88;;;10.70;99.90;;;;;;2485443;23;20015;-73
2022/05/06 02:57:02;;;;;;;14.57;8.00;;;10.60;99.90;;;;;;2498228;23;20038;-71
2022/05/06 02:58:03;;;;;;;13.20;7.85;;;10.60;99.90;;;;;;2475025;24;20036;-74
2022/05/06 02:59:05;;;;;;;10.88;7.88;;;10.60;99.90;;;;;;2462962;23;20042;-71
2022/05/06 03:00:09;;;;;;;10.48;7.65;;;10.50;99.90;;;;;;2475124;23;20031;-74
2022/05/06 03:01:10;;;;;;;11.05;7.63;;;10.50;99.90;;;;;;2475328;23;20012;-73
2022/05/06 03:02:13;;;;;;;9.93;7.82;;;10.50;99.90;;;;;;2474534;23;20028;-73
2022/05/06 03:03:14;;;;;;;10.55;8.07;;;10.50;99.90;;;;;;2484375;23;20063;-77
2022/05/06 03:04:17;;;;;;;12.85;7.65;;;10.50;99.90;;;;;;2496898;23;20091;-77
2022/05/06 03:05:19;;;;;;;9.60;7.85;;;10.50;99.90;;;;;;2484581;23;20004;-74
2022/05/06 03:06:20;;;;;;;9.52;7.57;;;10.50;99.90;;;;;;2472315;24;20012;-75
2022/05/06 03:07:23;;;;;;;8.63;7.57;;;10.40;99.90;;;;;;2484139;23;20012;-77
2022/05/06 03:08:26;;;;;;;9.63;7.53;;;10.40;99.90;;;;;;2483388;23;20493;-74
2022/05/06 03:09:27;;;;;;;11.48;7.90;;;10.40;99.90;;;;;;2483240;23;20087;-74
2022/05/06 03:10:28;;;;;;;9.70;7.68;;;10.40;99.90;;;;;;2495820;23;20015;-74
2022/05/06 03:11:29;;;;;;;11.13;7.93;;;10.40;99.90;;;;;;2483864;23;20479;-77
2022/05/06 03:12:36;;;;;;;13.75;8.23;;;10.30;99.90;;;;;;2484790;23;20075;-74
2022/05/06 03:13:45;;;;;;;10.03;7.63;;;10.30;99.90;;;;;;2494420;23;20012;-74
2022/05/06 03:14:50;;;;;;;11.65;7.90;;;10.30;99.90;;;;;;2495137;23;20250;-75
2022/05/06 03:16:05;;;;;;;12.32;8.00;;;10.30;99.90;;;;;;2494820;23;20022;-73
2022/05/06 03:17:05;;;;;;;11.23;8.38;;;10.20;99.90;;;;;;2480223;23;20080;-76
2022/05/06 03:18:06;;;;;;;13.07;8.07;;;10.20;99.90;;;;;;2483463;23;20008;-75
2022/05/06 03:19:07;;;;;;;13.00;8.30;;;10.20;99.90;;;;;;2483214;23;20054;-75
2022/05/06 03:20:08;;;;;;;10.65;8.20;;;10.20;99.90;;;;;;2482808;23;20019;-74
2022/05/06 03:21:09;;;;;;;10.10;8.35;;;10.20;99.90;;;;;;2483372;23;20513;-75
2022/05/06 03:22:12;;;;;;;9.95;8.27;;;10.20;99.90;;;;;;2483858;23;20018;-76
2022/05/06 03:23:14;;;;;;;12.65;8.07;;;10.10;99.90;;;;;;2494824;23;20067;-71
2022/05/06 03:24:15;;;;;;;11.32;8.52;;;10.10;99.90;;;;;;2482001;23;20007;-75
2022/05/06 03:25:17;;;;;;;11.55;8.32;;;10.10;99.90;;;;;;2484042;23;20015;-75
2022/05/06 03:26:18;;;;;;;10.80;8.35;;;10.10;99.90;;;;;;2496204;23;20015;-75
2022/05/06 03:28:38;;;;;;;12.90;8.40;;;10.10;99.90;;;;;;2488412;23;20136;-75
2022/05/06 03:29:39;;;;;;;13.82;8.93;;;10.00;99.90;;;;;;2497023;23;20003;-75
2022/05/06 03:30:47;;;;;;;12.95;8.40;;;10.10;99.90;;;;;;2496122;23;20019;-74
2022/05/06 03:31:54;;;;;;;11.50;8.20;;;10.00;99.90;;;;;;2496227;23;20015;-75
2022/05/06 03:32:58;;;;;;;12.65;8.02;;;10.00;99.90;;;;;;2496454;23;20021;-75
2022/05/06 03:34:01;;;;;;;13.20;7.97;;;10.00;99.90;;;;;;2496235;23;20094;-75
2022/05/06 03:35:09;;;;;;;12.23;8.38;;;10.00;99.90;;;;;;2496441;23;20011;-73
2022/05/06 03:36:13;;;;;;;11.52;8.07;;;10.00;99.90;;;;;;2497077;23;20038;-74
2022/05/06 03:37:26;;;;;;;10.85;7.93;;;10.00;99.90;;;;;;2496695;23;20011;-73
2022/05/06 03:38:27;;;;;;;10.68;7.88;;;10.00;99.90;;;;;;2484716;23;20023;-73
2022/05/06 03:39:32;;;;;;;11.82;8.18;;;10.00;99.90;;;;;;2485597;23;20059;-73
2022/05/06 03:40:37;;;;;;;12.73;8.48;;;10.00;99.90;;;;;;2484857;23;20071;-73
2022/05/06 03:41:40;;;;;;;10.52;8.15;;;10.00;99.90;;;;;;2484829;23;20500;-72
2022/05/06 03:42:41;;;;;;;11.05;8.40;;;10.00;99.90;;;;;;2496343;23;20011;-73
2022/05/06 03:43:43;;;;;;;11.55;8.55;;;10.00;99.90;;;;;;2496106;23;20019;-73
2022/05/06 03:44:50;;;;;;;11.35;8.15;;;10.00;99.90;;;;;;2486193;23;20051;-74
2022/05/06 03:45:51;;;;;;;13.50;8.15;;;10.00;99.90;;;;;;2497001;23;20054;-73
2022/05/06 03:46:55;;;;;;;11.38;7.63;;;10.00;99.90;;;;;;2496047;23;20374;-74
2022/05/06 03:48:03;;;;;;;12.82;7.80;;;9.90;99.90;;;;;;2485005;23;20016;-73
2022/05/06 03:49:09;;;;;;;11.75;8.23;;;10.00;99.90;;;;;;2486148;23;20012;-73
2022/05/06 03:51:31;;;;;;;10.27;8.40;;;10.00;99.90;;;;;;2489076;23;20063;-74
2022/05/06 03:52:40;;;;;;;12.50;8.35;;;9.90;99.90;;;;;;2497317;23;20703;-75
2022/05/06 03:53:41;;;;;;;9.80;8.10;;;10.00;99.90;;;;;;2487986;23;20000;-74
2022/05/06 03:54:42;;;;;;;10.88;8.23;;;10.00;99.90;;;;;;2488021;23;20004;-74
2022/05/06 03:55:43;;;;;;;13.70;8.43;;;10.00;99.90;;;;;;2499879;23;20037;-73
2022/05/06 03:56:44;;;;;;;11.80;8.57;;;10.00;99.90;;;;;;2499975;23;20007;-74
2022/05/06 03:57:46;;;;;;;13.20;8.85;;;10.00;99.90;;;;;;2498935;23;20035;-74
2022/05/06 03:58:47;;;;;;;11.90;8.60;;;10.10;99.90;;;;;;2501132;23;20027;-73
2022/05/06 03:59:50;;;;;;;10.35;7.82;;;10.10;99.90;;;;;;2501128;23;20022;-73
2022/05/06 04:00:52;;;;;;;13.48;8.80;;;10.10;99.90;;;;;;2500914;23;20000;-74
2022/05/06 04:01:53;;;;;;;11.15;8.57;;;10.10;99.90;;;;;;2477379;23;20004;-75
2022/05/06 04:03:02;;;;;;;11.32;8.32;;;10.10;99.90;;;;;;2480695;23;20012;-75
2022/05/06 04:04:04;;;;;;;11.60;8.50;;;10.20;99.90;;;;;;2488188;23;20020;-74
2022/05/06 04:05:07;;;;;;;9.77;7.88;;;10.20;99.90;;;;;;2489401;23;20000;-74
2022/05/06 04:06:08;;;;;;;12.13;8.90;;;10.20;99.90;;;;;;2501514;23;20008;-74
2022/05/06 04:07:09;;;;;;;11.68;8.57;;;10.20;99.90;;;;;;2501255;23;20032;-73
2022/05/06 04:08:18;;;;;;;10.93;8.35;;;10.20;99.90;;;;;;2501686;23;20098;-74
2022/05/06 04:09:20;;;;;;;12.52;8.68;;;10.20;99.90;;;;;;2501230;23;20011;-76
2022/05/06 04:10:21;;;;;;;14.48;8.90;;;10.30;99.90;;;;;;2501499;23;20008;-74
2022/05/06 04:11:24;;;;;;;12.02;8.40;;;10.30;99.90;;;;;;2489543;23;20015;-75
2022/05/06 04:12:29;;;;;;;11.90;8.35;;;10.30;99.90;;;;;;2476809;23;20056;-74
2022/05/06 04:13:37;;;;;;;12.25;8.32;;;10.30;99.90;;;;;;2487061;23;20035;-74
2022/05/06 04:14:38;;;;;;;11.20;8.55;;;10.40;99.90;;;;;;2497490;23;20003;-74
2022/05/06 04:15:38;;;;;;;11.18;8.40;;;10.40;99.90;;;;;;2497150;23;20008;-74
2022/05/06 04:16:44;;;;;;;9.52;7.93;;;10.50;99.90;;;;;;2496857;23;20007;-74
2022/05/06 04:17:57;;;;;;;12.88;8.55;;;10.50;99.90;;;;;;2496566;23;20012;-73
2022/05/06 04:18:58;;;;;;;10.40;8.15;;;10.60;99.90;;;;;;2484811;23;20004;-74
2022/05/06 04:24:06;;;;;;;11.30;7.85;;;11.20;99.90;;;;;;2497340;23;20557;-76
2022/05/06 04:25:07;;;;;;;10.60;7.72;;;11.50;99.90;;;;;;2497144;23;20004;-76
2022/05/06 04:26:11;;;;;;;11.32;8.02;;;11.70;99.90;;;;;;2484460;23;20090;-75
2022/05/06 04:27:15;;;;;;;10.77;8.05;;;11.90;99.90;;;;;;2485588;23;20004;-75
2022/05/06 04:28:16;;;;;;;11.63;8.30;;;12.00;99.90;;;;;;2496409;23;20011;-75
2022/05/06 04:29:21;;;;;;;12.43;8.00;;;12.00;99.90;;;;;;2496144;23;20026;-76
2022/05/06 04:30:23;;;;;;;14.98;8.85;;;12.10;99.90;;;;;;2473995;23;20094;-76
2022/05/06 04:31:36;;;;;;;10.32;7.45;;;12.10;99.90;;;;;;2487191;23;20023;-75
2022/05/06 04:32:42;;;;;;;9.95;7.80;;;12.10;99.90;;;;;;2495856;23;20018;-74
2022/05/06 04:33:47;;;;;;;11.88;7.80;;;12.10;99.90;;;;;;2496063;23;20067;-73
2022/05/06 04:34:56;;;;;;;10.43;7.80;;;12.10;99.90;;;;;;2483722;23;20004;-74
2022/05/06 04:35:59;;;;;;;9.57;7.78;;;12.20;99.90;;;;;;2483618;23;20019;-74
2022/05/06 04:37:03;;;;;;;9.90;7.53;;;12.30;99.90;;;;;;2494486;23;20146;-74
2022/05/06 04:38:05;;;;;;;10.98;7.70;;;12.30;99.90;;;;;;2483410;23;20015;-73
2022/05/06 04:39:08;;;;;;;10.25;7.85;;;12.40;99.90;;;;;;2484482;23;20028;-75
2022/05/06 04:40:16;;;;;;;11.85;8.05;;;12.40;99.90;;;;;;2495582;23;20003;-77
2022/05/06 04:41:17;;;;;;;13.13;7.63;;;12.50;99.90;;;;;;2483698;23;20015;-74
2022/05/06 04:42:18;;;;;;;9.80;7.68;;;12.60;99.90;;;;;;2483546;23;20004;-75
2022/05/06 04:43:20;;;;;;;10.98;7.60;;;12.70;99.90;;;;;;2483703;23;20016;-73
2022/05/06 04:44:24;;;;;;;11.43;7.68;;;12.80;99.90;;;;;;2472840;23;20061;-74
2022/05/06 04:45:26;;;;;;;10.00;7.43;;;12.80;99.90;;;;;;2484096;23;20465;-72
2022/05/06 04:46:37;;;;;;;11.45;7.43;;;12.80;99.90;;;;;;2493273;23;20018;-74
2022/05/06 04:47:37;;;;;;;11.38;7.25;;;12.90;98.90;;;;;;2494908;23;20013;-74
2022/05/06 04:48:39;;;;;;;11.32;7.35;;;12.80;98.40;;;;;;2495288;23;20462;-75
2022/05/06 04:49:44;;;;;;;11.07;7.10;;;12.80;98.70;;;;;;2495501;23;20030;-74
2022/05/06 04:50:46;;;;;;;10.38;7.63;;;12.70;98.30;;;;;;2495288;23;20004;-73
2022/05/06 04:51:50;;;;;;;10.63;7.78;;;12.70;98.50;;;;;;2495382;23;20436;-75
2022/05/06 04:52:52;;;;;;;9.38;7.10;;;12.70;98.40;;;;;;2495402;23;20102;-73
2022/05/06 04:53:55;;;;;;;11.82;7.68;;;12.70;98.50;;;;;;2495701;23;20014;-74
2022/05/06 04:54:56;;;;;;;10.05;7.80;;;12.70;98.60;;;;;;2495168;23;20003;-75
2022/05/06 04:55:56;;;;;;;15.32;8.02;;;12.70;98.40;;;;;;2495633;23;20003;-74
2022/05/06 04:57:09;;;;;;;10.93;7.70;;;12.70;98.50;;;;;;2494867;23;20035;-75
2022/05/06 04:58:11;;;;;;;13.88;8.18;;;12.70;98.50;;;;;;2495849;23;20007;-75
2022/05/06 04:59:13;;;;;;;10.30;7.40;;;12.80;98.30;;;;;;2495917;23;19995;-76
2022/05/06 05:00:21;;;;;;;9.35;6.88;;;13.00;97.90;;;;;;2484457;23;20008;-75
2022/05/06 05:01:22;;;;;;;9.20;7.05;;;13.10;97.00;;;;;;2485092;23;20008;-74
2022/05/06 05:02:25;;;;;;;12.05;7.20;;;13.20;96.20;;;;;;2496143;23;20080;-76
2022/05/06 05:03:28;;;;;;;10.30;7.25;;;13.30;95.60;;;;;;2495802;23;20480;-74
2022/05/06 05:04:31;;;;;;;13.38;7.35;;;13.40;94.70;;;;;;2496316;23;20086;-75
2022/05/06 05:05:38;;;;;;;10.80;7.07;;;13.40;94.60;;;;;;2482055;23;20019;-74
2022/05/06 05:06:40;;;;;;;10.27;6.82;;;13.50;94.00;;;;;;2474233;23;20004;-74
2022/05/06 05:07:44;;;;;;;9.85;7.13;;;13.60;93.60;;;;;;2483610;23;20120;-75
2022/05/06 05:08:48;;;;;;;9.85;7.22;;;13.70;93.50;;;;;;2485012;23;20418;-75
2022/05/06 05:09:50;;;;;;;10.35;6.60;;;13.80;93.20;;;;;;2496657;23;20014;-75
2022/05/06 05:11:02;;;;;;;11.32;6.80;;;14.00;92.00;;;;;;2487716;23;20724;-75
2022/05/06 05:12:08;;;;;;;10.48;6.90;;;14.10;90.40;;;;;;2489212;23;20004;-76
2022/05/06 05:13:13;;;;;;;11.43;6.93;;;14.20;88.90;;;;;;2485744;23;20079;-75
2022/05/06 05:14:14;;;;;;;9.80;6.93;;;14.20;88.00;;;;;;2484538;23;20000;-74
2022/05/06 05:15:18;;;;;;;11.85;6.90;;;14.30;85.80;;;;;;2484893;23;20011;-77
2022/05/06 05:16:18;;;;;;;10.23;6.70;;;14.30;84.70;;;;;;2485120;23;20115;-77
2022/05/06 05:17:19;;;;;;;8.95;6.88;;;14.30;84.70;;;;;;2495925;23;20397;-77
2022/05/06 05:18:22;;;;;;;11.70;7.47;;;14.20;84.30;;;;;;2496554;23;20007;-77
2022/05/06 05:19:22;;;;;;;12.27;7.95;;;14.10;85.70;;;;;;2495497;23;20026;-76
2022/05/06 05:20:28;;;;;;;10.85;7.10;;;14.10;86.30;;;;;;2495328;23;19999;-76
2022/05/06 05:21:31;;;;;;;9.55;6.82;;;14.10;87.10;;;;;;2483586;23;20008;-75
2022/05/06 05:22:36;;;;;;;13.48;7.95;;;14.20;87.20;;;;;;2483636;23;20430;-76
2022/05/06 05:23:40;;;;;;;14.07;7.72;;;14.20;85.00;;;;;;2494341;23;20092;-74
2022/05/06 05:24:41;;;;;;;10.65;7.47;;;14.10;83.20;;;;;;2482978;23;20473;-75
2022/05/06 05:25:43;;;;;;;14.07;7.30;;;14.10;85.10;;;;;;2481522;23;20354;-78
2022/05/06 05:26:45;;;;;;;12.25;7.35;;;14.00;82.10;;;;;;2494669;23;20011;-77
2022/05/06 05:27:46;;;;;;;13.65;7.57;;;13.90;83.00;;;;;;2495732;23;20007;-77
2022/05/06 05:28:59;;;;;;;12.25;7.10;;;13.80;83.30;;;;;;2497579;23;20018;-77
2022/05/06 05:30:01;;;;;;;10.73;7.03;;;13.70;84.30;;;;;;2497092;23;20011;-78
2022/05/06 05:31:05;;;;;;;10.52;6.78;;;13.80;84.60;;;;;;2497813;23;20023;-78
2022/05/06 05:32:10;;;;;;;10.38;7.60;;;14.00;84.90;;;;;;2496995;23;20023;-76
2022/05/06 05:33:14;;;;;;;9.05;7.00;;;14.10;83.90;;;;;;2497992;23;20011;-78
2022/05/06 05:34:22;;;;;;;11.23;7.45;;;14.40;83.60;;;;;;2497132;23;20059;-79
2022/05/06 05:35:24;;;;;;;9.90;6.68;;;14.60;82.10;;;;;;2497154;23;20004;-79
2022/05/06 05:36:31;;;;;;;10.70;6.80;;;14.80;79.60;;;;;;2482828;23;20086;-76
2022/05/06 05:37:31;;;;;;;11.65;6.70;;;15.00;76.90;;;;;;2482959;23;20011;-77
2022/05/06 05:38:36;;;;;;;12.27;7.00;;;15.00;75.90;;;;;;2496003;23;20042;-76
2022/05/06 05:39:38;;;;;;;9.27;6.60;;;15.10;74.80;;;;;;2495227;23;20016;-77
2022/05/06 05:40:41;;;;;;;13.85;7.30;;;15.30;74.60;;;;;;2483132;23;20012;-76
2022/05/06 05:41:44;;;;;;;9.68;6.65;;;15.50;74.00;;;;;;2485587;23;20007;-78
2022/05/06 05:42:49;;;;;;;10.13;6.55;;;15.60;73.10;;;;;;2496908;23;20354;-78